Grete Maersk — OYCY2 — position and weather

sailwx.info

Track history (hours):
 
Tides and Currents Weather Stations Pressure Air Temp Water Temp Dewpoint Dewpoint Depression Visibility Wind Speed Wind Dir Waves Ship Positions

Grete Maersk

Last reported at 2014-Oct-31 08:16 UTC. Time now 2014-Nov-01 09:12 UTC.
Position N 38°52' W 009°53'.

MMSI: 218824136.

Date/timePositionNaut miles runAvg speedWind from/ knotsBaromVisibWave heightAir tempDewpointWater temp
2014-Oct-31 08:16N 38°52' W 009°53'1318.3
2014-Oct-31 07:33N 38°39' W 009°51'1918.4
2014-Oct-31 06:33N 38°21' W 009°45'1818.4
2014-Oct-31 05:33N 38°03' W 009°38'1818.7
2014-Oct-31 04:34N 37°45' W 009°32'1818.5
2014-Oct-31 03:34N 37°27' W 009°29'2518.5
2014-Oct-31 02:12N 37°02' W 009°22'1117.6
2014-Oct-31 01:33N 36°52' W 009°18'1717.7
2014-Oct-31 00:34N 36°42' W 008°60'1918.5
2014-Oct-30 23:34N 36°35' W 008°38'2418.6
2014-Oct-30 22:16N 36°28' W 008°10'1318.5
2014-Oct-30 21:34N 36°24' W 007°54'1918.7
2014-Oct-30 20:34N 36°18' W 007°32'9819.2
2014-Oct-30 15:27N 35°58' W 005°34'1617.9
2014-Oct-30 14:34N 36°02' W 005°14'26418.8
2014-Oct-30 00:30N 36°44' E 000°09'1818.7
2014-Oct-29 23:33N 36°47' E 000°31'1818.3
2014-Oct-29 22:33N 36°50' E 000°53'2218.2
2014-Oct-29 21:20N 36°53' E 001°21'1418.2
2014-Oct-29 20:33N 36°55' E 001°39'58019.2
2014-Oct-28 14:18N 36°40' E 013°43'1620.8
2014-Oct-28 13:32N 36°35' E 014°02'2020.5
2014-Oct-28 12:34N 36°29' E 014°26'92920.6
2014-Oct-26 15:26N 31°36' E 032°10'1618.7
2014-Oct-26 14:33N 31°25' E 032°24'1413.1
2014-Oct-26 13:30N 31°11' E 032°20'  
Track history (hours):
 
Tides and Currents Weather Stations Pressure Air Temp Water Temp Dewpoint Dewpoint Depression Visibility Wind Speed Wind Dir Waves Ship Positions

Grete Maersk

Last reported at 2014-Oct-31 08:16 UTC. Time now 2014-Nov-01 09:12 UTC.
Position N 38°52' W 009°53'.

MMSI: 218824136.

Date/timePositionNaut miles runAvg speedWind from/ knotsBaromVisibWave heightAir tempDewpointWater temp
2014-Oct-31 08:16N 38°52' W 009°53'1318.3
2014-Oct-31 07:33N 38°39' W 009°51'1918.4
2014-Oct-31 06:33N 38°21' W 009°45'1818.4
2014-Oct-31 05:33N 38°03' W 009°38'1818.7
2014-Oct-31 04:34N 37°45' W 009°32'1818.5
2014-Oct-31 03:34N 37°27' W 009°29'2518.5
2014-Oct-31 02:12N 37°02' W 009°22'1117.6
2014-Oct-31 01:33N 36°52' W 009°18'1717.7
2014-Oct-31 00:34N 36°42' W 008°60'1918.5
2014-Oct-30 23:34N 36°35' W 008°38'2418.6
2014-Oct-30 22:16N 36°28' W 008°10'1318.5
2014-Oct-30 21:34N 36°24' W 007°54'1918.7
2014-Oct-30 20:34N 36°18' W 007°32'9819.2
2014-Oct-30 15:27N 35°58' W 005°34'1617.9
2014-Oct-30 14:34N 36°02' W 005°14'26418.8
2014-Oct-30 00:30N 36°44' E 000°09'1818.7
2014-Oct-29 23:33N 36°47' E 000°31'1818.3
2014-Oct-29 22:33N 36°50' E 000°53'2218.2
2014-Oct-29 21:20N 36°53' E 001°21'1418.2
2014-Oct-29 20:33N 36°55' E 001°39'58019.2
2014-Oct-28 14:18N 36°40' E 013°43'1620.8
2014-Oct-28 13:32N 36°35' E 014°02'2020.5
2014-Oct-28 12:34N 36°29' E 014°26'92920.6
2014-Oct-26 15:26N 31°36' E 032°10'1618.7
2014-Oct-26 14:33N 31°25' E 032°24'1413.1
2014-Oct-26 13:30N 31°11' E 032°20'  

Dump ship's entire track history